Time;durP1;ratioP1;P1;durP2;ratioP2;P2;SDS_P1;SDS_P2;PMS_P1;PMS_P2;Temp;Humidity;BMP_temperature;BMP_pressure;BME280_temperature;BME280_humidity;BME280_pressure;Samples;Min_cycle;Max_cycle;Signal;HPM_P1;HPM_P2
2022/12/08 00:01:12;;;;;;;25.33;15.63;;;0.60;99.90;;;;;;4854070;29;20077;-66
2022/12/08 00:03:39;;;;;;;27.05;16.08;;;0.60;99.90;;;;;;4851319;29;20046;-64
2022/12/08 00:11:38;;;;;;;26.10;15.55;;;0.60;99.90;;;;;;4857715;29;20050;-64
2022/12/08 00:14:05;;;;;;;24.50;15.25;;;0.60;99.90;;;;;;4846367;29;20080;-63
2022/12/08 00:16:31;;;;;;;25.80;15.45;;;0.60;99.90;;;;;;4854021;29;20037;-66
2022/12/08 00:18:58;;;;;;;23.83;15.80;;;0.60;99.90;;;;;;4856329;29;20430;-65
2022/12/08 00:21:25;;;;;;;33.70;20.25;;;0.60;99.90;;;;;;4856827;29;20050;-65
2022/12/08 00:23:52;;;;;;;44.45;25.85;;;0.50;99.90;;;;;;4844030;29;20045;-66
2022/12/08 00:26:18;;;;;;;25.98;17.27;;;0.50;99.90;;;;;;4843869;29;20049;-64
2022/12/08 00:28:45;;;;;;;23.40;16.23;;;0.50;99.90;;;;;;4847269;29;20054;-67
2022/12/08 00:31:12;;;;;;;27.73;15.55;;;0.50;99.90;;;;;;4851579;29;20050;-67
2022/12/08 00:33:39;;;;;;;27.90;16.85;;;0.50;99.90;;;;;;4844330;29;20054;-64
2022/12/08 00:36:05;;;;;;;27.60;15.57;;;0.50;99.90;;;;;;4846006;29;20145;-66
2022/12/08 00:38:32;;;;;;;23.13;15.00;;;0.50;99.90;;;;;;4847608;29;20097;-65
2022/12/08 00:40:59;;;;;;;29.40;17.88;;;0.50;99.90;;;;;;4856475;29;20034;-67
2022/12/08 00:43:26;;;;;;;22.23;14.82;;;0.50;99.90;;;;;;4850476;29;20391;-67
2022/12/08 00:45:52;;;;;;;19.75;13.50;;;0.40;99.90;;;;;;4843455;29;20440;-64
2022/12/08 00:48:19;;;;;;;25.52;14.82;;;0.40;99.90;;;;;;4860694;29;20073;-63
2022/12/08 00:50:46;;;;;;;23.17;15.23;;;0.40;99.90;;;;;;4860830;29;20045;-66
2022/12/08 00:53:12;;;;;;;22.17;13.65;;;0.40;99.90;;;;;;4861585;29;20046;-65
2022/12/08 00:55:39;;;;;;;23.98;14.48;;;0.40;99.90;;;;;;4860535;29;20045;-66
2022/12/08 00:58:06;;;;;;;24.58;14.40;;;0.40;99.90;;;;;;4862081;29;20565;-65
2022/12/08 01:00:33;;;;;;;18.98;13.90;;;0.40;99.90;;;;;;4860613;29;20049;-64
2022/12/08 01:02:59;;;;;;;19.50;13.90;;;0.30;99.90;;;;;;4862188;29;20083;-64
2022/12/08 01:05:26;;;;;;;24.80;14.63;;;0.30;99.90;;;;;;4875993;29;20057;-65
2022/12/08 01:07:53;;;;;;;25.08;14.40;;;0.30;99.90;;;;;;4849344;29;20513;-67
2022/12/08 01:10:20;;;;;;;22.08;13.68;;;0.30;99.90;;;;;;4848168;29;20049;-67
2022/12/08 01:12:46;;;;;;;24.50;14.75;;;0.30;99.90;;;;;;4842822;29;20049;-66
2022/12/08 01:15:13;;;;;;;27.23;15.65;;;0.30;99.90;;;;;;4852837;29;20052;-66
2022/12/08 01:17:40;;;;;;;27.05;16.48;;;0.30;99.90;;;;;;4843153;29;20069;-66
2022/12/08 01:20:07;;;;;;;28.20;15.70;;;0.20;99.90;;;;;;4857570;29;20047;-66
2022/12/08 01:22:34;;;;;;;23.35;15.68;;;0.20;99.90;;;;;;4860366;29;20083;-68
2022/12/08 01:25:01;;;;;;;24.45;13.90;;;0.20;99.90;;;;;;4860186;29;20058;-67
2022/12/08 01:27:28;;;;;;;20.23;14.07;;;0.20;99.90;;;;;;4861022;29;20121;-66
2022/12/08 01:29:55;;;;;;;24.67;15.80;;;0.20;99.90;;;;;;4861376;29;20060;-69
2022/12/08 01:32:21;;;;;;;24.38;15.02;;;0.20;99.90;;;;;;4845211;29;20406;-68
2022/12/08 01:34:48;;;;;;;23.38;14.38;;;0.20;99.90;;;;;;4842844;29;20094;-66
2022/12/08 01:37:15;;;;;;;26.15;14.65;;;0.20;99.90;;;;;;4841392;29;20169;-66
2022/12/08 01:39:42;;;;;;;26.85;14.27;;;0.10;99.90;;;;;;4842694;29;20057;-65
2022/12/08 01:42:08;;;;;;;25.25;14.60;;;0.10;99.90;;;;;;4842095;29;20169;-67
2022/12/08 01:44:35;;;;;;;21.92;15.07;;;0.10;99.90;;;;;;4854625;29;20049;-65
2022/12/08 01:47:02;;;;;;;22.45;15.32;;;0.10;99.90;;;;;;4860710;29;20060;-67
2022/12/08 01:49:28;;;;;;;25.77;17.27;;;0.10;99.90;;;;;;4859883;29;20053;-64
2022/12/08 01:51:55;;;;;;;27.38;17.15;;;0.00;99.90;;;;;;4860945;29;20093;-65
2022/12/08 01:54:22;;;;;;;25.58;16.83;;;0.00;99.90;;;;;;4861071;29;20136;-66
2022/12/08 01:56:48;;;;;;;21.52;15.23;;;0.10;99.90;;;;;;4860087;29;20045;-64
2022/12/08 01:59:15;;;;;;;24.65;15.38;;;0.00;99.90;;;;;;4859559;29;20470;-64
2022/12/08 02:01:42;;;;;;;21.05;15.13;;;0.00;99.90;;;;;;4860886;29;20156;-67
2022/12/08 02:04:09;;;;;;;20.80;15.38;;;0.00;99.90;;;;;;4860750;29;20046;-65
2022/12/08 02:06:35;;;;;;;21.27;14.55;;;0.00;99.90;;;;;;4860584;29;20101;-67
2022/12/08 02:09:02;;;;;;;23.13;14.35;;;0.00;99.90;;;;;;4844302;29;20046;-67
2022/12/08 02:11:29;;;;;;;23.38;16.17;;;0.00;99.90;;;;;;4842018;29;20410;-67
2022/12/08 02:13:56;;;;;;;25.98;14.77;;;-0.10;99.90;;;;;;4841960;29;20152;-65
2022/12/08 02:16:23;;;;;;;25.95;14.75;;;0.00;99.90;;;;;;4843090;29;20121;-66
2022/12/08 02:18:49;;;;;;;21.45;14.15;;;0.00;99.90;;;;;;4842104;29;20046;-67
2022/12/08 02:21:36;;;;;;;30.13;17.90;;;0.00;99.90;;;;;;4842384;29;20130;-67
2022/12/08 02:24:03;;;;;;;33.88;21.00;;;-0.10;99.90;;;;;;4842225;29;20050;-65
2022/12/08 02:26:29;;;;;;;43.90;32.47;;;-0.10;99.90;;;;;;4855811;29;20141;-69
2022/12/08 02:28:56;;;;;;;31.40;20.83;;;-0.10;99.90;;;;;;4847120;29;20038;-65
2022/12/08 02:31:23;;;;;;;36.85;24.00;;;-0.10;99.90;;;;;;4855348;29;20078;-66
2022/12/08 02:33:50;;;;;;;34.90;27.10;;;-0.10;99.90;;;;;;4848902;29;20478;-66
2022/12/08 02:36:16;;;;;;;46.97;33.10;;;-0.10;99.90;;;;;;4851585;29;20549;-68
2022/12/08 02:38:43;;;;;;;41.00;27.83;;;-0.10;99.90;;;;;;4860471;29;20542;-65
2022/12/08 02:41:10;;;;;;;27.40;19.38;;;-0.20;99.90;;;;;;4858788;29;20046;-66
2022/12/08 02:43:37;;;;;;;24.10;16.02;;;-0.20;99.90;;;;;;4862763;29;20056;-66
2022/12/08 02:46:03;;;;;;;23.50;15.57;;;-0.20;99.90;;;;;;4849291;29;20049;-65
2022/12/08 02:48:30;;;;;;;22.75;15.60;;;-0.20;99.90;;;;;;4857077;29;20045;-66
2022/12/08 02:50:57;;;;;;;24.15;15.95;;;-0.20;99.90;;;;;;4859465;29;20090;-66
2022/12/08 02:53:24;;;;;;;25.92;15.52;;;-0.20;99.90;;;;;;4856725;29;20046;-66
2022/12/08 02:55:50;;;;;;;24.90;15.35;;;-0.20;99.90;;;;;;4864025;29;20113;-68
2022/12/08 02:58:17;;;;;;;26.30;15.90;;;-0.20;99.90;;;;;;4846532;29;20062;-65
2022/12/08 03:00:44;;;;;;;25.00;15.45;;;-0.30;99.90;;;;;;4843623;29;20077;-66
2022/12/08 03:03:10;;;;;;;24.48;15.40;;;-0.30;99.90;;;;;;4845178;29;20074;-65
2022/12/08 03:05:37;;;;;;;27.05;15.63;;;-0.30;99.90;;;;;;4845813;29;20056;-65
2022/12/08 03:08:04;;;;;;;27.10;16.10;;;-0.30;99.90;;;;;;4857873;29;20090;-66
2022/12/08 03:10:31;;;;;;;20.63;14.20;;;-0.30;99.90;;;;;;4863697;29;20052;-68
2022/12/08 03:12:57;;;;;;;27.75;15.80;;;-0.30;99.90;;;;;;4863242;29;20105;-65
2022/12/08 03:15:25;;;;;;;24.73;14.88;;;-0.30;99.90;;;;;;4845745;29;20045;-67
2022/12/08 03:17:52;;;;;;;21.63;15.63;;;-0.30;99.90;;;;;;4843800;29;20462;-66
2022/12/08 03:20:18;;;;;;;22.08;15.13;;;-0.30;99.90;;;;;;4845369;29;20049;-65
2022/12/08 03:22:45;;;;;;;24.77;15.18;;;-0.40;99.90;;;;;;4845051;29;20549;-67
2022/12/08 03:25:12;;;;;;;23.45;16.08;;;-0.40;99.90;;;;;;4845155;29;20081;-67
2022/12/08 03:27:38;;;;;;;28.35;17.70;;;-0.40;99.90;;;;;;4862964;29;20056;-65
2022/12/08 03:30:05;;;;;;;30.05;17.63;;;-0.50;99.90;;;;;;4863208;29;20091;-67
2022/12/08 03:32:32;;;;;;;25.65;16.70;;;-0.40;99.90;;;;;;4863224;29;20137;-65
2022/12/08 03:34:59;;;;;;;23.15;16.92;;;-0.40;99.90;;;;;;4863264;29;20178;-65
2022/12/08 03:37:26;;;;;;;27.25;17.23;;;-0.40;99.90;;;;;;4863422;29;20049;-66
2022/12/08 03:39:53;;;;;;;29.80;20.08;;;-0.50;99.90;;;;;;4861732;29;20417;-64
2022/12/08 03:42:19;;;;;;;30.73;19.75;;;-0.50;99.90;;;;;;4862699;29;20374;-66
2022/12/08 03:44:46;;;;;;;28.10;17.90;;;-0.50;99.90;;;;;;4862906;29;20073;-66
2022/12/08 03:47:13;;;;;;;28.92;17.42;;;-0.50;99.90;;;;;;4862975;29;20132;-66
2022/12/08 03:49:39;;;;;;;23.73;16.08;;;-0.50;99.90;;;;;;4863124;29;20042;-68
2022/12/08 03:52:06;;;;;;;25.40;17.17;;;-0.50;99.90;;;;;;4863175;29;20048;-67
2022/12/08 03:54:33;;;;;;;23.77;15.68;;;-0.50;99.90;;;;;;4863296;29;20042;-65
2022/12/08 03:57:00;;;;;;;28.38;16.58;;;-0.50;99.90;;;;;;4861842;29;20034;-65
2022/12/08 03:59:26;;;;;;;28.92;18.17;;;-0.50;99.90;;;;;;4861118;29;20408;-67
2022/12/08 04:01:53;;;;;;;26.88;16.92;;;-0.50;99.90;;;;;;4861897;29;20065;-68
2022/12/08 04:04:20;;;;;;;26.73;15.55;;;-0.60;99.90;;;;;;4848283;29;20397;-66
2022/12/08 04:06:47;;;;;;;26.13;16.52;;;-0.60;99.90;;;;;;4856804;29;20076;-66
2022/12/08 04:09:14;;;;;;;23.08;16.02;;;-0.60;99.90;;;;;;4850960;29;20046;-62
2022/12/08 04:11:40;;;;;;;23.20;15.25;;;-0.60;99.90;;;;;;4859309;29;20520;-65
2022/12/08 04:14:07;;;;;;;26.55;17.85;;;-0.60;99.90;;;;;;4842958;29;20125;-67
2022/12/08 04:16:34;;;;;;;24.30;16.63;;;-0.60;99.90;;;;;;4847919;29;20034;-66
2022/12/08 04:19:00;;;;;;;26.48;16.48;;;-0.60;99.90;;;;;;4859615;29;20509;-67
2022/12/08 04:21:27;;;;;;;28.77;17.30;;;-0.60;99.90;;;;;;4859116;29;20045;-67
2022/12/08 04:23:54;;;;;;;25.08;17.35;;;-0.70;99.90;;;;;;4843689;29;20102;-66
2022/12/08 04:26:26;;;;;;;25.95;16.00;;;-0.70;99.90;;;;;;4843848;29;20046;-64
2022/12/08 04:28:53;;;;;;;29.85;17.27;;;-0.70;99.90;;;;;;4843652;29;20049;-65
2022/12/08 04:31:20;;;;;;;26.42;16.90;;;-0.70;99.90;;;;;;4855571;29;20045;-66
2022/12/08 04:33:47;;;;;;;24.25;16.33;;;-0.70;99.90;;;;;;4843760;29;20502;-66
2022/12/08 04:36:14;;;;;;;21.90;16.63;;;-0.70;99.90;;;;;;4852066;29;20448;-64
2022/12/08 04:38:40;;;;;;;24.42;15.60;;;-0.70;99.90;;;;;;4862410;29;20045;-67
2022/12/08 04:41:07;;;;;;;22.23;16.05;;;-0.70;99.90;;;;;;4860826;29;20077;-63
2022/12/08 04:43:34;;;;;;;26.88;16.80;;;-0.80;99.90;;;;;;4861644;29;20049;-66
2022/12/08 04:46:01;;;;;;;28.60;17.40;;;-0.80;99.90;;;;;;4857417;29;20163;-64
2022/12/08 04:48:27;;;;;;;24.65;16.13;;;-0.80;99.90;;;;;;4843411;29;20074;-65
2022/12/08 04:50:54;;;;;;;25.85;16.67;;;-0.80;99.90;;;;;;4850132;29;20489;-65
2022/12/08 04:53:21;;;;;;;26.45;18.15;;;-0.80;99.90;;;;;;4857815;29;20514;-67
2022/12/08 04:55:48;;;;;;;29.45;16.42;;;-0.80;99.90;;;;;;4843466;29;20456;-65
2022/12/08 04:58:15;;;;;;;28.05;17.80;;;-0.80;99.90;;;;;;4859447;29;20508;-67
2022/12/08 05:00:42;;;;;;;24.65;17.10;;;-0.80;99.90;;;;;;4861114;29;20116;-66
2022/12/08 05:03:08;;;;;;;27.58;17.67;;;-0.80;99.90;;;;;;4851347;29;20046;-68
2022/12/08 05:05:35;;;;;;;27.67;16.90;;;-0.80;99.90;;;;;;4843679;29;20050;-64
2022/12/08 05:08:02;;;;;;;30.50;17.67;;;-0.80;99.90;;;;;;4848280;29;20041;-66
2022/12/08 05:10:28;;;;;;;26.95;16.73;;;-0.80;99.90;;;;;;4859796;29;20065;-65
2022/12/08 05:12:55;;;;;;;27.70;17.58;;;-0.80;99.90;;;;;;4842846;29;20482;-66
2022/12/08 05:15:22;;;;;;;27.42;19.05;;;-0.80;99.90;;;;;;4843376;29;20069;-68
2022/12/08 05:17:49;;;;;;;23.02;16.73;;;-0.80;99.90;;;;;;4849318;29;20046;-67
2022/12/08 05:20:15;;;;;;;24.73;17.23;;;-0.80;99.90;;;;;;4859615;29;20473;-66
2022/12/08 05:22:42;;;;;;;24.05;16.52;;;-0.80;99.90;;;;;;4852660;29;20041;-66
2022/12/08 05:25:09;;;;;;;25.13;16.35;;;-0.90;99.90;;;;;;4859749;29;20049;-65
2022/12/08 05:27:36;;;;;;;26.70;18.08;;;-0.90;99.90;;;;;;4859442;29;20100;-66
2022/12/08 05:30:02;;;;;;;25.20;16.77;;;-0.90;99.90;;;;;;4844566;29;20042;-65
2022/12/08 05:32:29;;;;;;;25.80;16.65;;;-0.90;99.90;;;;;;4850711;29;20083;-64
2022/12/08 05:34:56;;;;;;;31.90;18.17;;;-0.90;99.90;;;;;;4859707;29;20080;-64
2022/12/08 05:37:23;;;;;;;26.63;16.77;;;-0.90;99.90;;;;;;4842720;29;20076;-66
2022/12/08 05:39:50;;;;;;;27.98;18.38;;;-0.90;99.90;;;;;;4859805;29;20073;-67
2022/12/08 05:42:17;;;;;;;27.00;18.17;;;-0.90;99.90;;;;;;4859019;29;20408;-63
2022/12/08 05:44:50;;;;;;;27.60;18.23;;;-0.90;99.90;;;;;;4855759;29;20042;-65
2022/12/08 05:47:17;;;;;;;28.42;18.63;;;-0.90;99.90;;;;;;4853757;29;20081;-65
2022/12/08 05:49:43;;;;;;;25.58;17.85;;;-1.00;99.90;;;;;;4855246;29;20136;-64
2022/12/08 05:52:10;;;;;;;26.23;16.88;;;-1.00;99.90;;;;;;4843772;29;20050;-63
2022/12/08 05:54:37;;;;;;;28.42;18.90;;;-1.00;99.90;;;;;;4842544;29;20053;-63
2022/12/08 05:57:04;;;;;;;28.25;18.23;;;-1.00;99.90;;;;;;4846456;29;20125;-65
2022/12/08 05:59:30;;;;;;;27.13;18.77;;;-1.00;99.90;;;;;;4848279;29;20106;-65
2022/12/08 06:01:57;;;;;;;28.08;18.52;;;-1.00;99.90;;;;;;4848676;29;20042;-66
2022/12/08 06:04:24;;;;;;;25.77;18.55;;;-1.00;99.90;;;;;;4844240;29;20042;-66
2022/12/08 06:06:51;;;;;;;24.55;18.13;;;-1.00;99.90;;;;;;4847875;29;20041;-64
2022/12/08 06:09:17;;;;;;;23.75;17.40;;;-1.10;99.90;;;;;;4853881;29;20177;-67
2022/12/08 06:11:46;;;;;;;27.00;18.13;;;-1.10;99.90;;;;;;4852666;29;20197;-67
2022/12/08 06:14:12;;;;;;;31.65;17.77;;;-1.00;99.90;;;;;;4859080;29;20054;-64
2022/12/08 06:16:39;;;;;;;25.80;17.10;;;-1.10;99.90;;;;;;4849775;29;20037;-63
2022/12/08 06:19:06;;;;;;;27.08;18.27;;;-1.10;99.90;;;;;;4860526;29;20085;-64
2022/12/08 06:21:33;;;;;;;27.40;18.42;;;-1.10;99.90;;;;;;4848878;29;20081;-64
2022/12/08 06:23:59;;;;;;;25.52;18.25;;;-1.10;99.90;;;;;;4841864;29;20129;-63
2022/12/08 06:26:26;;;;;;;28.17;19.83;;;-1.10;99.90;;;;;;4840736;29;20110;-66
2022/12/08 06:28:53;;;;;;;29.48;18.35;;;-1.10;99.90;;;;;;4842097;29;20053;-64
2022/12/08 06:31:20;;;;;;;27.90;17.90;;;-1.10;99.90;;;;;;4848495;29;20069;-66
2022/12/08 06:33:46;;;;;;;27.73;18.55;;;-1.10;99.90;;;;;;4843316;29;20406;-65
2022/12/08 06:36:13;;;;;;;25.05;17.75;;;-1.20;99.90;;;;;;4851229;29;20073;-66
2022/12/08 06:38:40;;;;;;;25.10;18.48;;;-1.10;99.90;;;;;;4859952;29;20077;-67
2022/12/08 06:41:09;;;;;;;28.20;18.40;;;-1.20;99.90;;;;;;4859419;29;20049;-65
2022/12/08 06:43:36;;;;;;;28.88;19.13;;;-1.20;99.90;;;;;;4857094;29;20061;-65
2022/12/08 06:46:02;;;;;;;28.27;18.42;;;-1.20;99.90;;;;;;4850884;29;20563;-64
2022/12/08 06:48:29;;;;;;;25.65;17.98;;;-1.20;99.90;;;;;;4841498;29;20046;-64
2022/12/08 06:50:56;;;;;;;25.15;17.50;;;-1.20;99.90;;;;;;4842438;29;20508;-63
2022/12/08 06:53:23;;;;;;;26.80;17.77;;;-1.20;99.90;;;;;;4854617;29;20136;-67
2022/12/08 06:55:49;;;;;;;32.08;18.88;;;-1.20;99.90;;;;;;4854771;29;20050;-65
2022/12/08 06:58:25;;;;;;;24.15;17.85;;;-1.20;99.90;;;;;;4857967;29;20072;-64
2022/12/08 07:00:52;;;;;;;28.40;17.40;;;-1.20;99.90;;;;;;4851461;29;20121;-64
2022/12/08 07:03:19;;;;;;;25.30;16.63;;;-1.20;99.90;;;;;;4857159;29;20042;-64
2022/12/08 07:05:46;;;;;;;24.40;17.70;;;-1.20;99.90;;;;;;4854953;29;20446;-67
2022/12/08 07:08:12;;;;;;;25.90;18.17;;;-1.20;99.90;;;;;;4841718;29;20050;-63
2022/12/08 07:10:39;;;;;;;27.60;17.08;;;-1.20;99.90;;;;;;4851478;29;20061;-64
2022/12/08 07:13:06;;;;;;;25.35;17.80;;;-1.20;99.90;;;;;;4842164;29;20081;-65
2022/12/08 07:15:33;;;;;;;26.45;18.83;;;-1.30;99.90;;;;;;4845868;29;20049;-66
2022/12/08 07:17:59;;;;;;;26.38;17.50;;;-1.30;99.90;;;;;;4847441;29;20057;-66
2022/12/08 07:20:29;;;;;;;26.48;18.50;;;-1.30;99.90;;;;;;4861263;29;20052;-64
2022/12/08 07:22:56;;;;;;;25.85;19.00;;;-1.30;99.90;;;;;;4860544;29;20127;-66
2022/12/08 07:25:22;;;;;;;28.80;18.63;;;-1.30;99.90;;;;;;4855234;29;20378;-64
2022/12/08 07:27:50;;;;;;;26.33;16.67;;;-1.30;99.90;;;;;;4863288;29;20363;-65
2022/12/08 07:30:17;;;;;;;29.80;19.20;;;-1.30;99.90;;;;;;4861818;29;20105;-65
2022/12/08 07:32:44;;;;;;;29.85;18.73;;;-1.30;99.90;;;;;;4855354;29;20132;-66
2022/12/08 07:35:10;;;;;;;29.85;19.13;;;-1.30;99.90;;;;;;4858310;29;20490;-65
2022/12/08 07:37:37;;;;;;;24.85;17.73;;;-1.30;99.90;;;;;;4855192;29;20128;-64
2022/12/08 07:40:04;;;;;;;25.50;19.75;;;-1.30;99.90;;;;;;4847071;29;20080;-65
2022/12/08 07:42:31;;;;;;;26.67;17.80;;;-1.30;99.90;;;;;;4854863;29;20048;-65
2022/12/08 07:44:58;;;;;;;25.35;17.63;;;-1.30;99.90;;;;;;4859855;29;20410;-65
2022/12/08 07:47:25;;;;;;;27.95;18.42;;;-1.30;99.90;;;;;;4852873;29;20056;-66
2022/12/08 07:49:51;;;;;;;28.65;18.92;;;-1.30;99.90;;;;;;4858543;29;20454;-65
2022/12/08 07:52:18;;;;;;;30.58;18.55;;;-1.30;99.90;;;;;;4857978;29;20474;-66
2022/12/08 07:54:45;;;;;;;26.92;17.83;;;-1.30;99.90;;;;;;4855266;29;20087;-67
2022/12/08 07:57:11;;;;;;;28.48;18.50;;;-1.30;99.90;;;;;;4858248;29;20124;-65
2022/12/08 07:59:38;;;;;;;28.75;19.48;;;-1.30;99.90;;;;;;4853630;29;20138;-66
2022/12/08 08:02:05;;;;;;;27.52;17.77;;;-1.30;99.90;;;;;;4851139;29;20432;-66
2022/12/08 08:04:50;;;;;;;29.73;18.70;;;-1.30;99.90;;;;;;4844945;29;20042;-66
2022/12/08 08:07:17;;;;;;;24.13;16.05;;;-1.30;99.90;;;;;;4857811;29;20332;-66
2022/12/08 08:09:44;;;;;;;31.88;19.67;;;-1.30;99.90;;;;;;4851104;29;20064;-65
2022/12/08 08:12:11;;;;;;;29.60;20.10;;;-1.30;99.90;;;;;;4861345;29;20045;-66
2022/12/08 08:14:58;;;;;;;30.58;19.25;;;-1.30;99.90;;;;;;4856801;29;20126;-64
2022/12/08 08:17:24;;;;;;;29.10;19.48;;;-1.30;99.90;;;;;;4853659;29;20129;-65
2022/12/08 08:19:51;;;;;;;28.45;19.42;;;-1.30;99.90;;;;;;4862050;29;20045;-66
2022/12/08 08:22:18;;;;;;;29.58;17.98;;;-1.30;99.90;;;;;;4854443;29;20505;-65
2022/12/08 08:24:45;;;;;;;27.52;19.55;;;-1.30;99.90;;;;;;4858075;29;20045;-66
2022/12/08 08:27:12;;;;;;;29.25;17.77;;;-1.30;99.90;;;;;;4860399;29;20136;-66
2022/12/08 08:29:39;;;;;;;28.58;18.52;;;-1.30;99.90;;;;;;4860272;29;20045;-66
2022/12/08 08:32:06;;;;;;;23.70;16.67;;;-1.30;99.90;;;;;;4860821;29;20103;-65
2022/12/08 08:34:32;;;;;;;30.23;19.17;;;-1.30;99.90;;;;;;4860850;29;20246;-64
2022/12/08 08:36:59;;;;;;;30.83;19.15;;;-1.30;99.90;;;;;;4861058;29;20140;-65
2022/12/08 08:39:26;;;;;;;28.50;18.73;;;-1.20;99.90;;;;;;4862199;29;20469;-64
2022/12/08 08:41:53;;;;;;;30.48;17.50;;;-1.30;99.90;;;;;;4862176;29;20060;-66
2022/12/08 08:44:19;;;;;;;31.48;18.92;;;-1.20;99.90;;;;;;4860647;29;20054;-64
2022/12/08 08:46:46;;;;;;;29.33;17.90;;;-1.20;99.90;;;;;;4861440;29;20068;-64
2022/12/08 08:49:13;;;;;;;29.27;18.70;;;-1.20;99.90;;;;;;4861942;29;20052;-65
2022/12/08 08:51:40;;;;;;;26.45;16.35;;;-1.20;99.90;;;;;;4861663;29;20474;-65
2022/12/08 08:54:06;;;;;;;26.88;17.95;;;-1.20;99.90;;;;;;4862056;29;20053;-64
2022/12/08 08:56:33;;;;;;;25.25;17.48;;;-1.20;99.90;;;;;;4860430;29;20077;-65
2022/12/08 08:59:01;;;;;;;28.45;17.95;;;-1.20;99.90;;;;;;4861456;29;20140;-65
2022/12/08 09:01:28;;;;;;;32.40;17.92;;;-1.20;99.90;;;;;;4860463;29;20101;-65
2022/12/08 09:03:55;;;;;;;25.55;17.00;;;-1.20;99.90;;;;;;4861556;29;20045;-65
2022/12/08 09:06:22;;;;;;;36.30;18.20;;;-1.10;99.90;;;;;;4861548;29;20050;-64
2022/12/08 09:08:49;;;;;;;28.65;17.70;;;-1.10;99.90;;;;;;4862096;29;20050;-64
2022/12/08 09:11:17;;;;;;;24.13;16.00;;;-1.10;99.90;;;;;;4861510;29;20045;-65
2022/12/08 09:13:44;;;;;;;23.88;17.63;;;-1.10;99.90;;;;;;4861448;29;20049;-65
2022/12/08 09:16:11;;;;;;;23.52;16.58;;;-1.00;99.90;;;;;;4861028;29;20559;-65
2022/12/08 09:18:38;;;;;;;25.25;17.48;;;-1.00;99.90;;;;;;4860400;29;20093;-63
2022/12/08 09:21:04;;;;;;;31.35;17.05;;;-1.00;99.90;;;;;;4859541;29;20110;-63
2022/12/08 09:23:31;;;;;;;25.02;17.20;;;-0.90;99.90;;;;;;4861226;29;20045;-65
2022/12/08 09:26:01;;;;;;;27.85;17.55;;;-0.90;99.90;;;;;;4860891;29;20041;-65
2022/12/08 09:28:28;;;;;;;24.90;17.17;;;-0.90;99.90;;;;;;4861171;29;20048;-64
2022/12/08 09:30:55;;;;;;;25.60;17.83;;;-0.80;99.90;;;;;;4860679;29;20049;-64
2022/12/08 09:33:22;;;;;;;26.73;17.25;;;-0.80;99.90;;;;;;4860615;29;20148;-64
2022/12/08 09:35:48;;;;;;;27.70;17.48;;;-0.80;99.90;;;;;;4860615;29;20109;-65
2022/12/08 09:38:15;;;;;;;25.92;17.58;;;-0.70;99.90;;;;;;4860460;29;20489;-65
2022/12/08 09:40:42;;;;;;;30.88;18.60;;;-0.70;99.90;;;;;;4860852;29;20486;-62
2022/12/08 09:43:09;;;;;;;28.15;17.83;;;-0.60;99.90;;;;;;4859540;29;20117;-65
2022/12/08 09:45:36;;;;;;;24.73;16.67;;;-0.40;99.90;;;;;;4860746;29;20070;-64
2022/12/08 09:48:03;;;;;;;27.65;18.35;;;-0.40;99.90;;;;;;4860734;29;20041;-65
2022/12/08 09:50:29;;;;;;;25.58;17.85;;;-0.30;99.90;;;;;;4860786;29;20438;-63
2022/12/08 09:52:56;;;;;;;26.80;17.38;;;-0.10;99.90;;;;;;4860650;29;20084;-65
2022/12/08 09:55:23;;;;;;;22.67;16.98;;;0.00;99.90;;;;;;4860438;29;20053;-67
2022/12/08 09:57:50;;;;;;;24.88;16.08;;;0.20;99.90;;;;;;4860951;29;20109;-66
2022/12/08 10:00:22;;;;;;;26.60;17.63;;;0.20;99.90;;;;;;4860423;29;20080;-65
2022/12/08 10:02:48;;;;;;;28.13;18.10;;;0.20;99.90;;;;;;4859393;29;20235;-65
2022/12/08 10:05:15;;;;;;;23.73;16.30;;;0.20;99.90;;;;;;4859251;29;20391;-64
2022/12/08 10:07:42;;;;;;;31.98;19.05;;;0.20;99.90;;;;;;4860898;29;20090;-64
2022/12/08 10:10:09;;;;;;;26.33;17.05;;;0.20;99.90;;;;;;4860690;29;20486;-66
2022/12/08 10:12:35;;;;;;;27.23;17.33;;;0.20;99.90;;;;;;4859229;29;20442;-66
2022/12/08 10:15:03;;;;;;;29.08;17.83;;;0.20;99.90;;;;;;4860390;29;20054;-65
2022/12/08 10:17:29;;;;;;;27.58;18.00;;;0.20;99.90;;;;;;4860329;29;20109;-65
2022/12/08 10:19:56;;;;;;;24.90;17.23;;;0.20;99.90;;;;;;4860564;29;20050;-65
2022/12/08 10:22:23;;;;;;;23.83;18.02;;;0.20;99.90;;;;;;4860496;29;20041;-66
2022/12/08 10:24:49;;;;;;;27.58;17.65;;;0.20;99.90;;;;;;4860622;29;20140;-65
2022/12/08 10:27:16;;;;;;;29.15;19.40;;;0.20;99.90;;;;;;4860606;29;20052;-64
2022/12/08 10:29:43;;;;;;;29.00;19.98;;;0.20;99.90;;;;;;4859316;29;20102;-63
2022/12/08 10:32:10;;;;;;;27.33;18.48;;;0.30;99.90;;;;;;4859137;29;20053;-65
2022/12/08 10:34:36;;;;;;;27.55;19.30;;;0.30;99.90;;;;;;4859139;29;20095;-63
2022/12/08 10:37:03;;;;;;;29.30;19.25;;;0.30;99.90;;;;;;4859981;29;20121;-68
2022/12/08 10:39:30;;;;;;;32.92;19.92;;;0.40;99.90;;;;;;4859944;29;20045;-66
2022/12/08 10:41:57;;;;;;;26.83;19.48;;;0.40;99.90;;;;;;4860301;29;20037;-65
2022/12/08 10:44:23;;;;;;;28.90;17.70;;;0.40;99.90;;;;;;4860386;29;20098;-67
2022/12/08 10:46:50;;;;;;;26.52;18.73;;;0.40;99.90;;;;;;4860394;29;20038;-63
2022/12/08 10:49:17;;;;;;;29.25;18.38;;;0.40;99.90;;;;;;4860419;29;20073;-66
2022/12/08 10:51:43;;;;;;;33.40;19.38;;;0.50;99.90;;;;;;4860368;29;20148;-66
2022/12/08 10:54:10;;;;;;;28.33;19.63;;;0.50;99.90;;;;;;4862293;29;20557;-64
2022/12/08 10:56:37;;;;;;;25.70;18.02;;;0.60;99.90;;;;;;4863536;29;20045;-65
2022/12/08 10:59:04;;;;;;;28.60;18.63;;;0.60;99.90;;;;;;4863353;29;20045;-67
2022/12/08 11:01:30;;;;;;;29.63;21.30;;;0.60;99.90;;;;;;4863993;29;20164;-65
2022/12/08 11:03:57;;;;;;;29.85;19.48;;;0.60;99.90;;;;;;4862428;29;20041;-66
2022/12/08 11:06:24;;;;;;;28.65;19.80;;;0.60;99.90;;;;;;4863409;29;20450;-66
2022/12/08 11:08:51;;;;;;;22.33;17.08;;;0.70;99.90;;;;;;4862480;29;20116;-65
2022/12/08 11:11:18;;;;;;;33.35;16.35;;;0.70;99.90;;;;;;4863641;29;20077;-66
2022/12/08 11:13:48;;;;;;;23.80;16.90;;;0.80;99.90;;;;;;4862237;29;20049;-66
2022/12/08 11:16:15;;;;;;;23.92;17.13;;;0.80;99.90;;;;;;4863613;29;20191;-65
2022/12/08 11:18:42;;;;;;;22.13;16.00;;;0.80;99.90;;;;;;4863173;29;20061;-65
2022/12/08 11:21:08;;;;;;;51.92;31.92;;;0.90;99.90;;;;;;4863141;29;20082;-65
2022/12/08 11:23:35;;;;;;;48.88;31.70;;;0.90;99.90;;;;;;4862974;29;20052;-64
2022/12/08 11:26:02;;;;;;;27.02;20.00;;;0.90;99.90;;;;;;4861975;29;20053;-65
2022/12/08 11:28:29;;;;;;;26.60;17.48;;;1.00;99.90;;;;;;4862847;29;20050;-67
2022/12/08 11:30:56;;;;;;;21.45;15.82;;;1.00;99.90;;;;;;4862003;29;20136;-66
2022/12/08 11:33:23;;;;;;;25.85;16.20;;;1.00;99.90;;;;;;4863127;29;20140;-64
2022/12/08 11:35:49;;;;;;;23.73;16.90;;;1.00;99.90;;;;;;4863103;29;20041;-67
2022/12/08 11:38:16;;;;;;;22.63;16.75;;;1.10;99.90;;;;;;4862758;29;20053;-66
2022/12/08 11:40:48;;;;;;;24.25;16.08;;;1.10;99.90;;;;;;4863174;29;20050;-66
2022/12/08 11:43:15;;;;;;;23.67;16.63;;;1.10;99.90;;;;;;4862832;29;20169;-68
2022/12/08 11:45:42;;;;;;;21.92;16.60;;;1.10;99.90;;;;;;4862380;29;20102;-65
2022/12/08 11:48:08;;;;;;;24.73;17.45;;;1.10;99.90;;;;;;4862648;29;20056;-66
2022/12/08 11:50:35;;;;;;;22.55;18.25;;;1.20;99.90;;;;;;4861741;29;20057;-65
2022/12/08 11:53:02;;;;;;;24.95;17.48;;;1.20;99.90;;;;;;4862649;29;20050;-65
2022/12/08 11:55:30;;;;;;;25.35;18.02;;;1.20;99.90;;;;;;4862893;29;20510;-65
2022/12/08 11:58:04;;;;;;;26.20;18.52;;;1.30;99.90;;;;;;4862927;29;20141;-68
2022/12/08 12:00:31;;;;;;;25.52;17.60;;;1.30;99.90;;;;;;4862377;29;20542;-65
2022/12/08 12:02:58;;;;;;;27.98;18.38;;;1.30;99.90;;;;;;4862290;29;20045;-62
2022/12/08 12:05:24;;;;;;;23.52;17.35;;;1.40;99.90;;;;;;4862327;29;20038;-63
2022/12/08 12:08:11;;;;;;;30.90;17.70;;;1.40;99.90;;;;;;4862430;29;20077;-63
2022/12/08 12:10:38;;;;;;;25.45;17.75;;;1.50;99.90;;;;;;4862538;29;20045;-66
2022/12/08 12:13:05;;;;;;;25.08;17.48;;;1.50;99.90;;;;;;4862243;29;20088;-66
2022/12/08 12:15:31;;;;;;;25.02;16.40;;;1.50;99.90;;;;;;4862427;29;20061;-66
2022/12/08 12:17:58;;;;;;;24.98;17.52;;;1.50;99.90;;;;;;4861430;29;20082;-65
2022/12/08 12:20:25;;;;;;;25.67;17.27;;;1.50;99.90;;;;;;4862561;29;20068;-65
2022/12/08 12:22:52;;;;;;;26.95;17.10;;;1.50;99.90;;;;;;4862167;29;20069;-64
2022/12/08 12:25:19;;;;;;;23.02;16.58;;;1.60;99.90;;;;;;4862080;29;20449;-65
2022/12/08 12:27:47;;;;;;;22.48;15.32;;;1.60;99.90;;;;;;4862535;29;20113;-65
2022/12/08 12:30:14;;;;;;;21.67;15.50;;;1.70;99.90;;;;;;4861721;29;20042;-64
2022/12/08 12:32:40;;;;;;;22.13;16.38;;;1.70;99.90;;;;;;4860670;29;20106;-67
2022/12/08 12:35:07;;;;;;;25.83;18.58;;;1.70;99.90;;;;;;4862082;29;20049;-66